createdAt,value
2022-11-12T00:04:20.888Z,75.19
2022-11-12T00:09:43.623Z,74.97
2022-11-12T00:15:05.820Z,75.20
2022-11-12T00:20:26.952Z,75.28
2022-11-12T00:25:49.564Z,75.31
2022-11-12T00:31:12.159Z,75.44
2022-11-12T00:36:33.363Z,75.05
2022-11-12T00:41:56.431Z,75.55
2022-11-12T00:47:17.630Z,75.40
2022-11-12T00:52:38.995Z,75.69
2022-11-12T00:58:01.816Z,75.76
2022-11-12T01:03:23.181Z,75.66
2022-11-12T01:08:45.134Z,75.99
2022-11-12T01:14:11.027Z,76.04
2022-11-12T01:19:32.387Z,75.98
2022-11-12T01:24:53.817Z,76.11
2022-11-12T01:30:16.950Z,76.31
2022-11-12T01:35:38.352Z,76.19
2022-11-12T01:40:59.872Z,76.23
2022-11-12T01:46:29.117Z,76.24
2022-11-12T01:51:52.771Z,76.42
2022-11-12T01:57:14.168Z,76.46
2022-11-12T02:02:37.542Z,76.66
2022-11-12T02:08:00.127Z,76.87
2022-11-12T02:13:39.010Z,76.84
2022-11-12T02:19:02.062Z,76.48
2022-11-12T02:24:36.800Z,76.77
2022-11-12T02:29:58.367Z,77.00
2022-11-12T02:35:19.797Z,76.83
2022-11-12T02:40:42.760Z,77.00
2022-11-12T02:46:04.092Z,77.05
2022-11-12T02:51:25.460Z,77.01
2022-11-12T02:56:48.132Z,76.99
2022-11-12T03:02:09.484Z,76.85
2022-11-12T03:07:30.868Z,76.89
2022-11-12T03:12:54.115Z,76.55
2022-11-12T03:18:15.223Z,76.35
2022-11-12T03:23:36.541Z,76.60
2022-11-12T03:28:59.363Z,76.19
2022-11-12T03:34:24.403Z,76.22
2022-11-12T03:39:48.251Z,76.27
2022-11-12T03:45:11.055Z,76.75
2022-11-12T03:50:32.221Z,76.59
2022-11-12T03:55:54.273Z,76.74
2022-11-12T04:01:17.007Z,76.39
2022-11-12T04:06:56.161Z,76.09
2022-11-12T04:12:35.170Z,76.12
2022-11-12T04:18:15.739Z,76.39
2022-11-12T04:23:36.963Z,76.72
2022-11-12T04:29:15.998Z,76.80
2022-11-12T04:34:38.861Z,77.16
2022-11-12T04:40:20.760Z,76.76
2022-11-12T04:45:42.833Z,76.79
2022-11-12T04:51:27.529Z,76.76
2022-11-12T04:56:48.721Z,76.62
2022-11-12T05:02:10.081Z,76.77
2022-11-12T05:07:34.438Z,76.46
2022-11-12T05:12:55.785Z,76.15
2022-11-12T05:18:17.203Z,76.13
2022-11-12T05:23:40.002Z,76.14
2022-11-12T05:29:04.969Z,76.69
2022-11-12T05:34:28.963Z,76.61
2022-11-12T05:39:51.752Z,76.67
2022-11-12T05:45:14.083Z,76.30
2022-11-12T05:50:45.371Z,75.97
2022-11-12T05:56:14.096Z,75.93
2022-11-12T06:01:43.922Z,75.81
2022-11-12T06:07:05.133Z,76.04
2022-11-12T06:12:27.989Z,76.13
2022-11-12T06:17:49.321Z,75.82
2022-11-12T06:23:10.742Z,76.03
2022-11-12T06:28:33.669Z,75.95
2022-11-12T06:33:55.187Z,76.25
2022-11-12T06:39:16.589Z,76.16
2022-11-12T06:44:39.390Z,75.98
2022-11-12T06:50:00.700Z,75.99
2022-11-12T06:55:22.250Z,75.96
2022-11-12T07:00:45.115Z,76.16
2022-11-12T07:06:11.411Z,75.88
2022-11-12T07:11:33.050Z,75.81
2022-11-12T07:16:55.932Z,75.57
2022-11-12T07:22:17.671Z,75.63
2022-11-12T07:27:39.205Z,75.73
2022-11-12T07:33:02.123Z,74.98
2022-11-12T07:38:23.709Z,75.14
2022-11-12T07:43:47.151Z,75.04
2022-11-12T07:49:09.821Z,74.82
2022-11-12T07:54:31.195Z,74.97
2022-11-12T07:59:52.588Z,74.93
2022-11-12T08:05:21.009Z,74.29
2022-11-12T08:10:42.977Z,74.46
2022-11-12T08:16:04.269Z,74.20
2022-11-12T08:21:27.173Z,74.04
2022-11-12T08:26:48.565Z,73.97
2022-11-12T08:32:10.166Z,73.75
2022-11-12T08:37:32.824Z,73.39
2022-11-12T08:43:00.780Z,73.43
2022-11-12T08:48:22.353Z,73.26
2022-11-12T08:53:44.947Z,72.96
2022-11-12T08:59:07.581Z,72.91
2022-11-12T09:04:28.991Z,73.22
2022-11-12T09:09:51.632Z,73.49
2022-11-12T09:20:55.312Z,73.10
2022-11-12T09:26:18.052Z,72.88
2022-11-12T09:31:39.418Z,72.41
2022-11-12T09:37:01.021Z,72.01
2022-11-12T09:42:24.184Z,71.84
2022-11-12T09:47:48.726Z,71.19
2022-11-12T09:53:15.331Z,71.22
2022-11-12T09:58:38.462Z,71.05
2022-11-12T10:04:08.406Z,71.01
2022-11-12T10:09:33.960Z,70.93
2022-11-12T10:15:36.579Z,70.70
2022-11-12T10:21:00.676Z,70.30
2022-11-12T10:26:23.736Z,69.74
2022-11-12T10:31:46.308Z,69.25
2022-11-12T10:37:08.833Z,68.63
2022-11-12T10:42:30.035Z,68.45
2022-11-12T10:47:52.789Z,67.68
2022-11-12T10:53:14.286Z,67.28
2022-11-12T10:58:35.689Z,66.72
2022-11-12T11:03:59.159Z,66.56
2022-11-12T11:09:21.609Z,65.71
2022-11-12T11:14:44.420Z,65.44
2022-11-12T11:20:15.812Z,65.28
2022-11-12T11:25:37.384Z,64.33
2022-11-12T11:31:04.104Z,63.60
2022-11-12T11:36:31.810Z,63.38
2022-11-12T11:42:05.018Z,63.81
2022-11-12T11:47:59.474Z,63.66
2022-11-12T11:53:23.107Z,63.19
2022-11-12T11:59:00.184Z,63.46
2022-11-12T12:04:35.529Z,63.30
2022-11-12T12:10:09.211Z,62.96
2022-11-12T12:15:49.119Z,62.40
2022-11-12T12:21:13.538Z,61.88
2022-11-12T12:26:38.670Z,61.99
2022-11-12T12:32:03.777Z,61.94
2022-11-12T12:37:28.414Z,61.34
2022-11-12T12:42:55.273Z,61.98
2022-11-12T12:48:29.804Z,62.20
2022-11-12T12:53:51.015Z,61.94
2022-11-12T12:59:22.266Z,61.01
2022-11-12T13:04:55.781Z,60.45
2022-11-12T13:10:47.878Z,60.23
2022-11-12T13:16:10.331Z,60.71
2022-11-12T13:21:31.830Z,61.63
2022-11-12T13:26:55.860Z,62.61
2022-11-12T13:32:41.794Z,63.39
2022-11-12T13:38:05.862Z,63.80
2022-11-12T13:43:33.148Z,64.29
2022-11-12T13:49:00.071Z,64.54
2022-11-12T13:54:33.192Z,65.10
2022-11-12T14:00:20.618Z,64.83
2022-11-12T14:05:48.316Z,65.15
2022-11-12T14:11:21.993Z,65.09
2022-11-12T14:16:52.276Z,65.40
2022-11-12T14:22:16.818Z,65.52
2022-11-12T14:27:38.451Z,65.71
2022-11-12T14:33:01.045Z,65.78
2022-11-12T14:38:29.836Z,65.72
2022-11-12T14:44:11.070Z,66.31
2022-11-12T14:49:38.253Z,66.35
2022-11-12T14:55:07.686Z,66.59
2022-11-12T15:00:41.439Z,66.94
2022-11-12T15:06:09.990Z,67.29
2022-11-12T15:11:35.195Z,67.84
2022-11-12T15:16:56.781Z,68.16
2022-11-12T15:22:21.620Z,68.78
2022-11-12T15:27:44.431Z,68.76
2022-11-12T15:33:10.302Z,69.15
2022-11-12T15:38:36.028Z,69.61
2022-11-12T15:43:58.842Z,70.04
2022-11-12T15:49:20.078Z,70.22
2022-11-12T15:54:41.460Z,70.37
2022-11-12T16:00:08.647Z,70.76
2022-11-12T16:05:33.176Z,71.00
2022-11-12T16:10:55.249Z,71.12
2022-11-12T16:16:18.416Z,71.24
2022-11-12T16:21:39.951Z,71.15
2022-11-12T16:27:02.350Z,71.50
2022-11-12T16:32:25.314Z,71.91
2022-11-12T16:37:47.480Z,72.10
2022-11-12T16:43:08.546Z,71.82
2022-11-12T16:48:32.178Z,72.04
2022-11-12T16:53:53.358Z,71.96
2022-11-12T16:59:14.899Z,72.00
2022-11-12T17:04:38.004Z,72.25
2022-11-12T17:09:59.577Z,72.38
2022-11-12T17:15:20.836Z,72.70
2022-11-12T17:20:47.116Z,72.83
2022-11-12T17:26:12.940Z,72.76
2022-11-12T17:31:34.508Z,72.96
2022-11-12T17:36:57.475Z,72.83
2022-11-12T17:42:19.209Z,73.06
2022-11-12T17:47:40.836Z,73.06
2022-11-12T17:53:03.737Z,73.15
2022-11-12T17:58:25.506Z,73.31
2022-11-12T18:03:50.082Z,73.59
2022-11-12T18:09:15.527Z,73.68
2022-11-12T18:14:36.808Z,73.40
2022-11-12T18:19:58.217Z,73.52
2022-11-12T18:25:21.363Z,73.22
2022-11-12T18:30:42.807Z,73.20
2022-11-12T18:36:06.345Z,73.04
2022-11-12T18:41:30.238Z,73.59
2022-11-12T18:46:51.355Z,73.37
2022-11-12T18:52:13.095Z,73.71
2022-11-12T18:57:35.888Z,74.08
2022-11-12T19:02:57.338Z,74.38
2022-11-12T19:08:19.284Z,74.41
2022-11-12T19:13:42.354Z,74.56
2022-11-12T19:19:03.812Z,74.48
2022-11-12T19:24:25.290Z,74.20
2022-11-12T19:29:49.473Z,74.10
2022-11-12T19:35:11.056Z,74.16
2022-11-12T19:40:32.124Z,73.53
2022-11-12T19:45:55.049Z,73.96
2022-11-12T19:51:16.599Z,73.59
2022-11-12T19:56:37.897Z,73.75
2022-11-12T20:02:00.775Z,73.98
2022-11-12T20:07:22.470Z,73.39
2022-11-12T20:12:44.204Z,73.62
2022-11-12T20:18:09.645Z,73.85
2022-11-12T20:23:31.787Z,74.34
2022-11-12T20:28:53.020Z,74.47
2022-11-12T20:34:16.185Z,73.88
2022-11-12T20:39:37.533Z,74.17
2022-11-12T20:44:58.738Z,74.13
2022-11-12T20:50:21.532Z,73.94
2022-11-12T20:55:42.743Z,74.36
2022-11-12T21:01:04.493Z,74.05
2022-11-12T21:06:29.513Z,73.87
2022-11-12T21:11:51.266Z,73.73
2022-11-12T21:17:12.661Z,73.65
2022-11-12T21:22:35.444Z,73.64
2022-11-12T21:27:56.816Z,73.89
2022-11-12T21:33:23.161Z,73.91
2022-11-12T21:38:45.648Z,73.76
2022-11-12T21:44:07.264Z,73.77
2022-11-12T21:49:31.822Z,73.73
2022-11-12T21:54:54.644Z,73.84
2022-11-12T22:00:41.073Z,73.54
2022-11-12T22:06:00.014Z,73.61
2022-11-12T22:11:23.230Z,73.98
2022-11-12T22:16:44.402Z,73.65
2022-11-12T22:22:06.221Z,73.39
2022-11-12T22:27:31.555Z,73.54
2022-11-12T22:32:52.963Z,73.45
2022-11-12T22:38:16.641Z,73.27
2022-11-12T22:43:39.438Z,73.43
2022-11-12T22:49:02.454Z,73.17
2022-11-12T22:54:23.652Z,73.08
2022-11-12T22:59:46.532Z,73.44
2022-11-12T23:05:08.509Z,73.50
2022-11-12T23:10:31.774Z,73.78
2022-11-12T23:15:54.262Z,73.67
2022-11-12T23:21:18.866Z,73.60
2022-11-12T23:26:40.248Z,73.27
2022-11-12T23:32:02.956Z,73.23
2022-11-12T23:37:29.223Z,72.99
2022-11-12T23:42:50.460Z,72.88
2022-11-12T23:48:13.377Z,72.91
2022-11-12T23:53:35.996Z,72.67
2022-11-12T23:58:58.269Z,72.91
